createdAt,value
2017-12-15T00:00:44.217Z,987.54
2017-12-15T00:01:53.649Z,987.47
2017-12-15T00:03:03.592Z,987.47
2017-12-15T00:04:13.063Z,987.5
2017-12-15T00:05:23.020Z,987.55
2017-12-15T00:06:32.729Z,987.46
2017-12-15T00:07:42.701Z,987.47
2017-12-15T00:08:52.385Z,987.45
2017-12-15T00:10:02.342Z,987.42
2017-12-15T00:11:12.077Z,987.49
2017-12-15T00:12:22.024Z,987.47
2017-12-15T00:13:31.207Z,987.42
2017-12-15T00:14:40.923Z,987.45
2017-12-15T00:15:50.616Z,987.47
2017-12-15T00:17:00.562Z,987.47
2017-12-15T00:18:10.253Z,987.48
2017-12-15T00:19:20.202Z,987.45
2017-12-15T00:20:29.900Z,987.46
2017-12-15T00:21:39.850Z,987.48
2017-12-15T00:22:49.273Z,987.45
2017-12-15T00:23:58.964Z,987.46
2017-12-15T00:25:08.908Z,987.49
2017-12-15T00:26:18.597Z,987.47
2017-12-15T00:27:28.310Z,987.46
2017-12-15T00:28:38.254Z,987.45
2017-12-15T00:29:48.195Z,987.46
2017-12-15T00:30:58.135Z,987.44
2017-12-15T00:32:07.560Z,987.45
2017-12-15T00:33:17.246Z,987.5
2017-12-15T00:34:26.934Z,987.5
2017-12-15T00:35:36.886Z,987.41
2017-12-15T00:36:46.572Z,987.37
2017-12-15T00:37:56.255Z,987.39
2017-12-15T00:39:06.191Z,987.38
2017-12-15T00:40:15.893Z,987.34
2017-12-15T00:41:25.836Z,987.36
2017-12-15T00:42:35.775Z,987.38
2017-12-15T00:43:45.468Z,987.4
2017-12-15T00:44:55.166Z,987.39
2017-12-15T00:46:04.852Z,987.38
2017-12-15T00:47:14.548Z,987.34
2017-12-15T00:48:24.253Z,987.36
2017-12-15T00:49:34.192Z,987.35
2017-12-15T00:50:43.884Z,987.37
2017-12-15T00:51:53.311Z,987.31
2017-12-15T00:53:03.000Z,987.28
2017-12-15T00:54:12.953Z,987.29
2017-12-15T00:55:22.896Z,987.24
2017-12-15T00:56:32.593Z,987.31
2017-12-15T00:57:42.024Z,987.3
2017-12-15T00:58:51.454Z,987.29
2017-12-15T01:00:01.133Z,987.28
2017-12-15T01:01:11.075Z,987.24
2017-12-15T01:02:21.024Z,987.25
2017-12-15T01:03:30.972Z,987.26
2017-12-15T01:04:40.401Z,987.23
2017-12-15T01:05:50.082Z,987.2
2017-12-15T01:06:59.518Z,987.23
2017-12-15T01:08:09.198Z,987.2
2017-12-15T01:09:18.626Z,987.21
2017-12-15T01:10:28.061Z,987.18
2017-12-15T01:11:37.747Z,987.16
2017-12-15T01:12:46.918Z,987.21
2017-12-15T01:13:56.601Z,987.19
2017-12-15T01:15:06.550Z,987.17
2017-12-15T01:16:16.242Z,987.2
2017-12-15T01:17:26.207Z,987.24
2017-12-15T01:18:36.147Z,987.22
2017-12-15T01:19:46.110Z,987.27
2017-12-15T01:20:56.058Z,987.23
2017-12-15T01:22:06.001Z,987.34
2017-12-15T01:23:15.756Z,987.35
2017-12-15T01:24:25.706Z,987.42
2017-12-15T01:25:35.412Z,987.41
2017-12-15T01:26:44.572Z,987.44
2017-12-15T01:27:53.757Z,987.42
2017-12-15T01:29:03.177Z,987.39
2017-12-15T01:30:13.129Z,987.4
2017-12-15T01:31:23.070Z,987.46
2017-12-15T01:32:33.024Z,987.48
2017-12-15T01:33:42.907Z,987.47
2017-12-15T01:34:52.849Z,987.45
2017-12-15T01:36:02.273Z,987.43
2017-12-15T01:37:11.700Z,987.39
2017-12-15T01:38:21.648Z,987.41
2017-12-15T01:39:31.335Z,987.39
2017-12-15T01:40:41.278Z,987.4
2017-12-15T01:41:50.973Z,987.43
2017-12-15T01:43:00.653Z,987.39
2017-12-15T01:44:10.598Z,987.38
2017-12-15T01:45:20.028Z,987.39
2017-12-15T01:46:29.963Z,987.38
2017-12-15T01:47:39.664Z,987.35
2017-12-15T01:48:49.342Z,987.4
2017-12-15T01:49:58.521Z,987.34
2017-12-15T01:51:08.482Z,987.3
2017-12-15T01:52:18.163Z,987.35
2017-12-15T01:53:28.122Z,987.3
2017-12-15T01:54:37.563Z,987.25
2017-12-15T01:55:47.255Z,987.23
2017-12-15T01:56:57.206Z,987.18
2017-12-15T01:58:06.896Z,987.2
2017-12-15T01:59:16.611Z,987.2
2017-12-15T02:00:26.557Z,987.18
2017-12-15T02:01:36.504Z,987.19
2017-12-15T02:02:45.929Z,987.14
2017-12-15T02:03:55.671Z,987.17
2017-12-15T02:05:05.605Z,987.18
2017-12-15T02:06:15.549Z,987.17
2017-12-15T02:07:25.539Z,987.14
2017-12-15T02:08:35.484Z,987.13
2017-12-15T02:09:44.670Z,987.15
2017-12-15T02:10:54.099Z,987.14
2017-12-15T02:12:03.781Z,987.17
2017-12-15T02:13:13.734Z,987.19
2017-12-15T02:14:23.176Z,987.17
2017-12-15T02:15:33.119Z,987.17
2017-12-15T02:16:42.808Z,987.19
2017-12-15T02:17:52.755Z,987.17
2017-12-15T02:19:02.434Z,987.22
2017-12-15T02:20:12.116Z,987.24
2017-12-15T02:21:21.812Z,987.24
2017-12-15T02:22:31.757Z,987.24
2017-12-15T02:23:41.442Z,987.24
2017-12-15T02:24:50.860Z,987.26
2017-12-15T02:26:00.789Z,987.22
2017-12-15T02:27:10.522Z,987.16
2017-12-15T02:28:20.216Z,987.17
2017-12-15T02:29:30.157Z,987.17
2017-12-15T02:30:40.105Z,987.16
2017-12-15T02:31:49.286Z,987.2
2017-12-15T02:32:58.779Z,987.18
2017-12-15T02:34:08.408Z,987.21
2017-12-15T02:35:18.101Z,987.21
2017-12-15T02:36:27.818Z,987.27
2017-12-15T02:37:37.783Z,987.31
2017-12-15T02:38:47.208Z,987.22
2017-12-15T02:39:56.644Z,987.31
2017-12-15T02:41:06.085Z,987.26
2017-12-15T02:42:15.512Z,987.21
2017-12-15T02:43:25.190Z,987.21
2017-12-15T02:44:34.878Z,987.19
2017-12-15T02:45:44.567Z,987.21
2017-12-15T02:46:54.518Z,987.2
2017-12-15T02:48:04.467Z,987.17
2017-12-15T02:49:13.896Z,987.2
2017-12-15T02:50:23.593Z,987.17
2017-12-15T02:51:33.541Z,987.18
2017-12-15T02:52:43.240Z,987.19
2017-12-15T02:53:53.203Z,987.17
2017-12-15T02:55:02.893Z,987.22
2017-12-15T02:56:12.320Z,987.19
2017-12-15T02:57:22.016Z,987.2
2017-12-15T02:58:31.958Z,987.13
2017-12-15T02:59:41.902Z,987.16
2017-12-15T03:00:51.851Z,987.15
2017-12-15T03:02:01.557Z,987.2
2017-12-15T03:03:11.759Z,987.28
2017-12-15T03:04:21.202Z,987.27
2017-12-15T03:05:31.135Z,987.2
2017-12-15T03:06:41.090Z,987.22
2017-12-15T03:07:51.031Z,987.2
2017-12-15T03:09:00.458Z,987.22
2017-12-15T03:10:10.129Z,987.2
2017-12-15T03:11:19.549Z,987.22
2017-12-15T03:12:29.230Z,987.24
2017-12-15T03:13:39.165Z,987.22
2017-12-15T03:14:49.105Z,987.22
2017-12-15T03:15:59.069Z,987.21
2017-12-15T03:17:09.185Z,987.26
2017-12-15T03:18:18.645Z,987.24
2017-12-15T03:19:28.356Z,987.21
2017-12-15T03:20:38.347Z,987.18
2017-12-15T03:21:48.359Z,987.22
2017-12-15T03:22:58.806Z,987.26
2017-12-15T03:24:08.809Z,987.27
2017-12-15T03:25:18.542Z,987.25
2017-12-15T03:26:27.973Z,987.23
2017-12-15T03:27:37.921Z,987.29
2017-12-15T03:28:47.854Z,987.33
2017-12-15T03:29:57.803Z,987.33
2017-12-15T03:31:07.505Z,987.3
2017-12-15T03:32:17.471Z,987.27
2017-12-15T03:33:27.451Z,987.23
2017-12-15T03:34:36.885Z,987.24
2017-12-15T03:35:46.824Z,987.23
2017-12-15T03:36:56.759Z,987.22
2017-12-15T03:38:06.690Z,987.2
2017-12-15T03:39:16.642Z,987.16
2017-12-15T03:40:26.622Z,987.17
2017-12-15T03:41:36.051Z,987.21
2017-12-15T03:42:45.994Z,987.2
2017-12-15T03:43:55.671Z,987.2
2017-12-15T03:45:05.098Z,987.13
2017-12-15T03:46:15.039Z,987.16
2017-12-15T03:47:24.463Z,987.15
2017-12-15T03:48:34.145Z,987.21
2017-12-15T03:49:44.107Z,987.18
2017-12-15T03:50:53.777Z,987.18
2017-12-15T03:52:03.476Z,987.15
2017-12-15T03:53:13.419Z,987.21
2017-12-15T03:54:23.367Z,987.17
2017-12-15T03:55:32.799Z,987.18
2017-12-15T03:56:42.807Z,987.16
2017-12-15T03:57:52.783Z,987.13
2017-12-15T03:59:02.729Z,987.13
2017-12-15T04:00:12.157Z,987.15
2017-12-15T04:01:21.831Z,987.15
2017-12-15T04:02:31.513Z,987.19
2017-12-15T04:03:41.274Z,987.18
2017-12-15T04:04:51.221Z,987.18
2017-12-15T04:06:00.960Z,987.17
2017-12-15T04:07:10.908Z,987.18
2017-12-15T04:08:20.601Z,987.12
2017-12-15T04:09:30.031Z,987.14
2017-12-15T04:10:39.460Z,987.08
2017-12-15T04:11:48.878Z,987.13
2017-12-15T04:12:58.817Z,987.15
2017-12-15T04:14:08.773Z,987.1
2017-12-15T04:15:18.464Z,987.13
2017-12-15T04:16:27.634Z,987.13
2017-12-15T04:17:37.316Z,987.1
2017-12-15T04:18:47.258Z,987.07
2017-12-15T04:19:56.942Z,987.15
2017-12-15T04:21:06.638Z,987.16
2017-12-15T04:22:16.590Z,987.12
2017-12-15T04:23:26.020Z,987.18
2017-12-15T04:24:35.695Z,987.09
2017-12-15T04:25:45.384Z,987.1
2017-12-15T04:26:55.322Z,987.05
2017-12-15T04:28:04.747Z,987.09
2017-12-15T04:29:14.434Z,987.07
2017-12-15T04:30:24.374Z,987.06
2017-12-15T04:31:34.055Z,987.03
2017-12-15T04:32:43.482Z,987.03
2017-12-15T04:33:52.909Z,987.01
2017-12-15T04:35:02.849Z,987
2017-12-15T04:36:12.269Z,986.99
2017-12-15T04:37:22.212Z,986.99
2017-12-15T04:38:31.643Z,986.98
2017-12-15T04:39:41.331Z,986.99
2017-12-15T04:40:51.012Z,986.97
2017-12-15T04:42:00.955Z,986.99
2017-12-15T04:43:10.645Z,986.97
2017-12-15T04:44:20.071Z,986.99
2017-12-15T04:45:29.498Z,987
2017-12-15T04:46:39.438Z,986.99
2017-12-15T04:47:49.387Z,987.01
2017-12-15T04:48:59.336Z,987
2017-12-15T04:50:09.316Z,986.97
2017-12-15T04:51:19.009Z,987
2017-12-15T04:52:28.950Z,987.01
2017-12-15T04:53:38.889Z,987.05
2017-12-15T04:54:48.062Z,987.02
2017-12-15T04:55:57.742Z,987.03
2017-12-15T04:57:07.694Z,987.07
2017-12-15T04:58:17.638Z,987.04
2017-12-15T04:59:27.085Z,987.08
2017-12-15T05:00:37.023Z,987.01
2017-12-15T05:01:46.969Z,987.05
2017-12-15T05:02:56.916Z,987.07
2017-12-15T05:04:06.350Z,987.12
2017-12-15T05:05:16.039Z,987.12
2017-12-15T05:06:25.998Z,987.12
2017-12-15T05:07:35.927Z,987.05
2017-12-15T05:08:45.861Z,987.02
2017-12-15T05:09:55.561Z,987
2017-12-15T05:11:05.501Z,986.99
2017-12-15T05:12:15.442Z,986.99
2017-12-15T05:13:25.376Z,987.06
2017-12-15T05:14:35.066Z,987.03
2017-12-15T05:15:44.753Z,987.06
2017-12-15T05:16:54.700Z,987.05
2017-12-15T05:18:04.644Z,987.04
2017-12-15T05:19:14.847Z,987.01
2017-12-15T05:20:24.540Z,987.04
2017-12-15T05:21:34.229Z,987.07
2017-12-15T05:22:44.179Z,987.12
2017-12-15T05:23:53.340Z,987.08
2017-12-15T05:25:02.764Z,987.1
2017-12-15T05:26:12.183Z,987.04
2017-12-15T05:27:21.871Z,987.01
2017-12-15T05:28:31.565Z,987.05
2017-12-15T05:29:41.250Z,987.04
2017-12-15T05:30:51.206Z,987.03
2017-12-15T05:32:01.173Z,987.07
2017-12-15T05:33:11.136Z,987.08
2017-12-15T05:34:20.848Z,987.05
2017-12-15T05:35:30.565Z,987.04
2017-12-15T05:36:40.268Z,987.01
2017-12-15T05:37:50.280Z,987.04
2017-12-15T05:38:59.940Z,987
2017-12-15T05:40:09.929Z,987.05
2017-12-15T05:41:19.615Z,987.06
2017-12-15T05:42:29.557Z,987.04
2017-12-15T05:43:39.503Z,987.11
2017-12-15T05:44:48.960Z,987.12
2017-12-15T05:45:58.667Z,987.16
2017-12-15T05:47:08.352Z,987.12
2017-12-15T05:48:17.777Z,987.16
2017-12-15T05:49:27.738Z,987.12
2017-12-15T05:50:36.650Z,987.17
2017-12-15T05:51:46.596Z,987.2
2017-12-15T05:52:56.303Z,987.23
2017-12-15T05:54:06.005Z,987.26
2017-12-15T05:55:15.961Z,987.24
2017-12-15T05:56:25.390Z,987.23
2017-12-15T05:57:34.820Z,987.22
2017-12-15T05:58:44.244Z,987.24
2017-12-15T05:59:54.194Z,987.24
2017-12-15T06:01:04.155Z,987.23
2017-12-15T06:02:13.853Z,987.19
2017-12-15T06:03:23.040Z,987.19
2017-12-15T06:04:32.475Z,987.21
2017-12-15T06:05:42.168Z,987.26
2017-12-15T06:06:52.118Z,987.26
2017-12-15T06:08:02.138Z,987.27
2017-12-15T06:09:12.108Z,987.31
2017-12-15T06:10:22.048Z,987.32
2017-12-15T06:11:31.733Z,987.33
2017-12-15T06:12:41.167Z,987.36
2017-12-15T06:13:50.857Z,987.35
2017-12-15T06:15:00.294Z,987.36
2017-12-15T06:16:10.254Z,987.4
2017-12-15T06:17:19.941Z,987.38
2017-12-15T06:18:29.364Z,987.42
2017-12-15T06:19:39.051Z,987.4
2017-12-15T06:20:48.993Z,987.45
2017-12-15T06:21:58.680Z,987.45
2017-12-15T06:23:08.623Z,987.5
2017-12-15T06:24:18.053Z,987.48
2017-12-15T06:25:27.999Z,987.44
2017-12-15T06:26:37.690Z,987.46
2017-12-15T06:27:47.635Z,987.46
2017-12-15T06:28:57.574Z,987.56
2017-12-15T06:30:07.261Z,987.49
2017-12-15T06:31:16.943Z,987.5
2017-12-15T06:32:26.886Z,987.47
2017-12-15T06:33:36.831Z,987.46
2017-12-15T06:34:46.786Z,987.42
2017-12-15T06:35:56.727Z,987.41
2017-12-15T06:37:06.670Z,987.44
2017-12-15T06:38:16.366Z,987.47
2017-12-15T06:39:26.300Z,987.41
2017-12-15T06:40:35.489Z,987.5
2017-12-15T06:41:45.424Z,987.44
2017-12-15T06:42:55.121Z,987.46
2017-12-15T06:44:05.077Z,987.45
2017-12-15T06:45:14.775Z,987.51
2017-12-15T06:46:24.710Z,987.51
2017-12-15T06:47:34.425Z,987.52
2017-12-15T06:48:44.412Z,987.46
2017-12-15T06:49:53.849Z,987.48
2017-12-15T06:51:03.794Z,987.53
2017-12-15T06:52:13.483Z,987.55
2017-12-15T06:53:23.172Z,987.52
2017-12-15T06:54:32.876Z,987.54
2017-12-15T06:55:42.825Z,987.59
2017-12-15T06:56:52.786Z,987.61
2017-12-15T06:58:02.464Z,987.64
2017-12-15T06:59:11.897Z,987.62
2017-12-15T07:00:21.853Z,987.65
2017-12-15T07:01:31.809Z,987.69
2017-12-15T07:02:41.502Z,987.67
2017-12-15T07:03:51.183Z,987.7
2017-12-15T07:05:01.018Z,987.7
2017-12-15T07:06:10.806Z,987.78
2017-12-15T07:07:20.863Z,987.78
2017-12-15T07:08:30.631Z,987.86
2017-12-15T07:09:40.615Z,987.79
2017-12-15T07:10:50.578Z,987.81
2017-12-15T07:12:00.282Z,987.77
2017-12-15T07:13:10.045Z,987.77
2017-12-15T07:14:19.806Z,987.83
2017-12-15T07:15:29.503Z,987.8
2017-12-15T07:16:39.473Z,987.79
2017-12-15T07:17:49.431Z,987.78
2017-12-15T07:18:59.148Z,987.81
2017-12-15T07:20:09.192Z,987.85
2017-12-15T07:21:18.898Z,987.85
2017-12-15T07:22:28.861Z,987.85
2017-12-15T07:23:38.602Z,987.82
2017-12-15T07:24:48.660Z,987.84
2017-12-15T07:25:58.360Z,987.84
2017-12-15T07:27:08.318Z,987.81
2017-12-15T07:28:17.763Z,987.88
2017-12-15T07:29:27.762Z,987.88
2017-12-15T07:30:37.533Z,987.82
2017-12-15T07:31:47.242Z,987.88
2017-12-15T07:32:56.948Z,987.85
2017-12-15T07:34:06.407Z,987.88
2017-12-15T07:35:16.123Z,987.86
2017-12-15T07:36:26.096Z,987.86
2017-12-15T07:37:35.553Z,987.87
2017-12-15T07:38:45.292Z,987.9
2017-12-15T07:39:54.988Z,987.92
2017-12-15T07:41:05.190Z,987.93
2017-12-15T07:42:14.378Z,987.93
2017-12-15T07:43:24.086Z,987.91
2017-12-15T07:44:34.059Z,987.93
2017-12-15T07:45:43.891Z,987.93
2017-12-15T07:46:53.998Z,987.9
2017-12-15T07:48:03.768Z,987.93
2017-12-15T07:49:13.775Z,987.94
2017-12-15T07:50:23.487Z,987.97
2017-12-15T07:51:33.205Z,987.94
2017-12-15T07:52:43.190Z,987.97
2017-12-15T07:53:52.882Z,987.99
2017-12-15T07:55:02.594Z,988.01
2017-12-15T07:56:12.343Z,987.97
2017-12-15T07:57:21.771Z,987.98
2017-12-15T07:58:31.469Z,987.99
2017-12-15T07:59:40.675Z,988.01
2017-12-15T08:00:50.374Z,988.01
2017-12-15T08:01:59.894Z,988.05
2017-12-15T08:03:09.606Z,988
2017-12-15T08:04:19.316Z,988.03
2017-12-15T08:05:29.334Z,988.05
2017-12-15T08:06:38.819Z,988.09
2017-12-15T08:07:48.794Z,988.07
2017-12-15T08:08:58.495Z,988.06
2017-12-15T08:10:08.459Z,988.03
2017-12-15T08:11:17.907Z,988.09
2017-12-15T08:12:27.884Z,988.05
2017-12-15T08:13:37.591Z,988.04
2017-12-15T08:14:47.303Z,988.05
2017-12-15T08:15:57.272Z,988.12
2017-12-15T08:17:07.022Z,988.07
2017-12-15T08:18:16.756Z,988.07
2017-12-15T08:19:26.840Z,988.09
2017-12-15T08:20:36.624Z,988.06
2017-12-15T08:21:46.683Z,988.09
2017-12-15T08:22:56.390Z,988.1
2017-12-15T08:24:05.823Z,988.08
2017-12-15T08:25:15.786Z,988.09
2017-12-15T08:26:25.774Z,988.2
2017-12-15T08:27:35.218Z,988.18
2017-12-15T08:28:44.934Z,988.21
2017-12-15T08:29:54.641Z,988.21
2017-12-15T08:31:04.326Z,988.21
2017-12-15T08:32:13.764Z,988.25
2017-12-15T08:33:23.497Z,988.25
2017-12-15T08:34:33.450Z,988.27
2017-12-15T08:35:43.403Z,988.25
2017-12-15T08:36:53.109Z,988.3
2017-12-15T08:38:02.802Z,988.31
2017-12-15T08:39:12.031Z,988.34
2017-12-15T08:40:21.980Z,988.36
2017-12-15T08:41:31.686Z,988.39
2017-12-15T08:42:41.638Z,988.42
2017-12-15T08:43:51.330Z,988.46
2017-12-15T08:45:01.378Z,988.45
2017-12-15T08:46:11.077Z,988.51
2017-12-15T08:47:20.505Z,988.54
2017-12-15T08:48:29.934Z,988.56
2017-12-15T08:49:39.873Z,988.63
2017-12-15T08:50:49.561Z,988.63
2017-12-15T08:51:59.267Z,988.66
2017-12-15T08:53:09.241Z,988.71
2017-12-15T08:54:18.682Z,988.72
2017-12-15T08:55:28.414Z,988.75
2017-12-15T08:56:38.602Z,988.75
2017-12-15T08:57:47.782Z,988.72
2017-12-15T08:58:57.213Z,988.79
2017-12-15T09:00:06.899Z,988.8
2017-12-15T09:01:16.596Z,988.78
2017-12-15T09:02:26.545Z,988.77
2017-12-15T09:03:36.502Z,988.78
2017-12-15T09:04:46.188Z,988.83
2017-12-15T09:05:55.405Z,988.86
2017-12-15T09:07:05.358Z,988.91
2017-12-15T09:08:15.053Z,988.88
2017-12-15T09:09:25.262Z,988.85
2017-12-15T09:10:35.241Z,988.85
2017-12-15T09:11:44.991Z,988.93
2017-12-15T09:12:54.974Z,988.91
2017-12-15T09:14:04.977Z,988.98
2017-12-15T09:15:14.679Z,989.02
2017-12-15T09:16:24.125Z,989.04
2017-12-15T09:17:33.827Z,989.03
2017-12-15T09:18:43.781Z,989.02
2017-12-15T09:19:53.492Z,989.05
2017-12-15T09:21:02.922Z,989.06
2017-12-15T09:22:12.643Z,989.05
2017-12-15T09:23:22.349Z,989.05
2017-12-15T09:24:32.322Z,989.07
2017-12-15T09:25:42.022Z,989.11
2017-12-15T09:26:51.772Z,989.07
2017-12-15T09:28:01.460Z,989.12
2017-12-15T09:29:11.457Z,989.12
2017-12-15T09:30:20.944Z,989.15
2017-12-15T09:31:30.379Z,989.15
2017-12-15T09:32:40.101Z,989.14
2017-12-15T09:33:50.075Z,989.15
2017-12-15T09:35:00.032Z,989.17
2017-12-15T09:36:09.458Z,989.17
2017-12-15T09:37:19.129Z,989.21
2017-12-15T09:38:29.102Z,989.23
2017-12-15T09:39:38.793Z,989.2
2017-12-15T09:40:48.242Z,989.21
2017-12-15T09:41:58.459Z,989.18
2017-12-15T09:43:08.168Z,989.19
2017-12-15T09:44:18.117Z,989.23
2017-12-15T09:45:28.083Z,989.22
2017-12-15T09:46:38.049Z,989.24
2017-12-15T09:47:47.794Z,989.22
2017-12-15T09:48:57.744Z,989.18
2017-12-15T09:50:07.709Z,989.23
2017-12-15T09:51:17.416Z,989.23
2017-12-15T09:52:27.462Z,989.25
2017-12-15T09:53:37.158Z,989.28
2017-12-15T09:54:46.850Z,989.24
2017-12-15T09:55:56.806Z,989.3
2017-12-15T09:57:05.980Z,989.3
2017-12-15T09:58:15.665Z,989.28
2017-12-15T09:59:25.369Z,989.3
2017-12-15T10:00:35.337Z,989.26
2017-12-15T10:01:44.547Z,989.35
2017-12-15T10:02:54.574Z,989.35
2017-12-15T10:04:04.289Z,989.3
2017-12-15T10:05:14.018Z,989.37
2017-12-15T10:06:24.202Z,989.36
2017-12-15T10:07:34.195Z,989.35
2017-12-15T10:08:43.884Z,989.35
2017-12-15T10:09:53.837Z,989.36
2017-12-15T10:11:03.605Z,989.37
2017-12-15T10:12:13.311Z,989.4
2017-12-15T10:13:23.277Z,989.46
2017-12-15T10:14:33.233Z,989.4
2017-12-15T10:15:42.933Z,989.45
2017-12-15T10:16:52.379Z,989.44
2017-12-15T10:18:02.355Z,989.49
2017-12-15T10:19:12.322Z,989.49
2017-12-15T10:20:22.303Z,989.48
2017-12-15T10:21:31.733Z,989.45
2017-12-15T10:22:41.450Z,989.51
2017-12-15T10:23:51.270Z,989.53
2017-12-15T10:25:01.806Z,989.5
2017-12-15T10:26:12.133Z,989.5
2017-12-15T10:27:21.883Z,989.59
2017-12-15T10:28:31.357Z,989.5
2017-12-15T10:29:41.476Z,989.53
2017-12-15T10:30:51.370Z,989.51
2017-12-15T10:32:01.363Z,989.54
2017-12-15T10:33:11.322Z,989.5
2017-12-15T10:34:21.284Z,989.54
2017-12-15T10:35:30.731Z,989.55
2017-12-15T10:36:40.742Z,989.57
2017-12-15T10:37:49.920Z,989.58
2017-12-15T10:38:59.941Z,989.55
2017-12-15T10:40:09.912Z,989.6
2017-12-15T10:41:19.861Z,989.6
2017-12-15T10:42:29.803Z,989.63
2017-12-15T10:43:39.752Z,989.63
2017-12-15T10:44:49.206Z,989.66
2017-12-15T10:45:59.168Z,989.65
2017-12-15T10:47:09.144Z,989.63
2017-12-15T10:48:18.847Z,989.64
2017-12-15T10:49:28.564Z,989.64
2017-12-15T10:50:38.532Z,989.63
2017-12-15T10:51:48.536Z,989.65
2017-12-15T10:52:58.504Z,989.66
2017-12-15T10:54:08.512Z,989.69
2017-12-15T10:55:18.535Z,989.65
2017-12-15T10:56:28.276Z,989.67
2017-12-15T10:57:38.232Z,989.69
2017-12-15T10:58:48.211Z,989.62
2017-12-15T10:59:58.168Z,989.69
2017-12-15T11:01:08.126Z,989.7
2017-12-15T11:02:18.103Z,989.68
2017-12-15T11:03:28.029Z,989.7
2017-12-15T11:04:37.713Z,989.71
2017-12-15T11:05:47.144Z,989.74
2017-12-15T11:06:56.857Z,989.69
2017-12-15T11:08:06.556Z,989.72
2017-12-15T11:09:16.514Z,989.76
2017-12-15T11:10:25.968Z,989.78
2017-12-15T11:11:35.658Z,989.77
2017-12-15T11:12:45.374Z,989.83
2017-12-15T11:13:55.446Z,989.82
2017-12-15T11:15:05.394Z,989.82
2017-12-15T11:16:15.355Z,989.85
2017-12-15T11:17:25.052Z,989.87
2017-12-15T11:18:34.744Z,989.88
2017-12-15T11:19:44.422Z,989.93
2017-12-15T11:20:53.868Z,989.91
2017-12-15T11:22:03.604Z,989.95
2017-12-15T11:23:13.043Z,990.04
2017-12-15T11:24:23.015Z,989.97
2017-12-15T11:25:32.696Z,989.97
2017-12-15T11:26:42.664Z,990.01
2017-12-15T11:27:52.100Z,990
2017-12-15T11:29:01.561Z,990.02
2017-12-15T11:30:10.984Z,990.06
2017-12-15T11:31:20.702Z,990.11
2017-12-15T11:32:30.191Z,990.06
2017-12-15T11:33:40.152Z,990.12
2017-12-15T11:34:50.137Z,990.1
2017-12-15T11:35:59.834Z,990.11
2017-12-15T11:37:09.795Z,990.07
2017-12-15T11:38:19.492Z,990.12
2017-12-15T11:39:29.186Z,990.08
2017-12-15T11:40:39.136Z,990.07
2017-12-15T11:41:48.571Z,990.13
2017-12-15T11:42:58.553Z,990.08
2017-12-15T11:44:08.498Z,990.06
2017-12-15T11:45:18.451Z,990.08
2017-12-15T11:46:27.887Z,990.1
2017-12-15T11:47:37.872Z,990.12
2017-12-15T11:48:47.923Z,990.14
2017-12-15T11:49:57.966Z,990.15
2017-12-15T11:51:07.686Z,990.15
2017-12-15T11:52:17.065Z,990.19
2017-12-15T11:53:27.070Z,990.23
2017-12-15T11:54:36.585Z,990.2
2017-12-15T11:55:46.544Z,990.25
2017-12-15T11:56:56.252Z,990.28
2017-12-15T11:58:05.956Z,990.31
2017-12-15T11:59:15.668Z,990.31
2017-12-15T12:00:25.690Z,990.31
2017-12-15T12:01:35.669Z,990.28
2017-12-15T12:02:45.676Z,990.26
2017-12-15T12:03:55.633Z,990.31
2017-12-15T12:05:05.334Z,990.31
2017-12-15T12:06:14.781Z,990.33
2017-12-15T12:07:24.801Z,990.34
2017-12-15T12:08:34.505Z,990.33
2017-12-15T12:09:44.471Z,990.37
2017-12-15T12:10:54.436Z,990.35
2017-12-15T12:12:04.473Z,990.39
2017-12-15T12:13:14.484Z,990.42
2017-12-15T12:14:24.185Z,990.45
2017-12-15T12:15:33.612Z,990.47
2017-12-15T12:16:43.302Z,990.47
2017-12-15T12:17:52.733Z,990.52
2017-12-15T12:19:02.700Z,990.57
2017-12-15T12:20:12.380Z,990.55
2017-12-15T12:21:22.350Z,990.58
2017-12-15T12:22:32.292Z,990.54
2017-12-15T12:23:42.243Z,990.56
2017-12-15T12:24:52.220Z,990.61
2017-12-15T12:26:02.256Z,990.66
2017-12-15T12:27:12.251Z,990.67
2017-12-15T12:28:22.259Z,990.69
2017-12-15T12:29:32.204Z,990.63
2017-12-15T12:30:42.156Z,990.66
2017-12-15T12:31:51.319Z,990.69
2017-12-15T12:33:00.245Z,990.69
2017-12-15T12:34:09.957Z,990.69
2017-12-15T12:35:19.671Z,990.69
2017-12-15T12:36:29.610Z,990.69
2017-12-15T12:37:39.302Z,990.74
2017-12-15T12:38:49.009Z,990.71
2017-12-15T12:39:58.772Z,990.72
2017-12-15T12:41:08.729Z,990.75
2017-12-15T12:42:18.713Z,990.75
2017-12-15T12:43:28.712Z,990.75
2017-12-15T12:44:38.403Z,990.75
2017-12-15T12:45:48.147Z,990.76
2017-12-15T12:46:58.082Z,990.78
2017-12-15T12:48:07.773Z,990.79
2017-12-15T12:49:17.706Z,990.82
2017-12-15T12:50:27.661Z,990.86
2017-12-15T12:51:37.606Z,990.91
2017-12-15T12:52:47.566Z,990.88
2017-12-15T12:53:57.582Z,990.91
2017-12-15T12:55:07.560Z,990.89
2017-12-15T12:56:17.249Z,990.97
2017-12-15T12:57:26.946Z,990.97
2017-12-15T12:58:36.660Z,991
2017-12-15T12:59:45.840Z,990.95
2017-12-15T13:00:55.306Z,990.92
2017-12-15T13:02:05.246Z,991
2017-12-15T13:03:15.257Z,991.03
2017-12-15T13:04:24.937Z,991.03
2017-12-15T13:05:34.643Z,991.02
2017-12-15T13:06:44.070Z,991.08
2017-12-15T13:07:53.807Z,991.05
2017-12-15T13:09:03.508Z,991.13
2017-12-15T13:10:13.478Z,991.12
2017-12-15T13:11:23.191Z,991.08
2017-12-15T13:12:32.904Z,991.11
2017-12-15T13:13:42.846Z,991.15
2017-12-15T13:14:52.560Z,991.14
2017-12-15T13:16:02.266Z,991.14
2017-12-15T13:17:12.274Z,991.16
2017-12-15T13:18:21.991Z,991.11
2017-12-15T13:19:31.946Z,991.14
2017-12-15T13:20:41.634Z,991.18
2017-12-15T13:21:51.363Z,991.18
2017-12-15T13:23:01.357Z,991.16
2017-12-15T13:24:11.314Z,991.21
2017-12-15T13:25:21.268Z,991.23
2017-12-15T13:26:31.219Z,991.21
2017-12-15T13:27:40.662Z,991.27
2017-12-15T13:28:50.626Z,991.25
2017-12-15T13:30:00.590Z,991.2
2017-12-15T13:31:10.569Z,991.24
2017-12-15T13:32:20.252Z,991.25
2017-12-15T13:33:29.963Z,991.27
2017-12-15T13:34:39.928Z,991.31
2017-12-15T13:35:49.887Z,991.29
2017-12-15T13:36:59.601Z,991.42
2017-12-15T13:38:09.326Z,991.36
2017-12-15T13:39:19.273Z,991.45
2017-12-15T13:40:29.242Z,991.46
2017-12-15T13:41:38.939Z,991.42
2017-12-15T13:42:48.895Z,991.46
2017-12-15T13:43:58.088Z,991.51
2017-12-15T13:45:07.788Z,991.51
2017-12-15T13:46:17.786Z,991.54
2017-12-15T13:47:27.731Z,991.56
2017-12-15T13:48:37.209Z,991.62
2017-12-15T13:49:47.167Z,991.59
2017-12-15T13:50:56.857Z,991.6
2017-12-15T13:52:06.294Z,991.59
2017-12-15T13:53:16.007Z,991.66
2017-12-15T13:54:25.739Z,991.63
2017-12-15T13:55:35.699Z,991.63
2017-12-15T13:56:45.384Z,991.68
2017-12-15T13:57:55.331Z,991.68
2017-12-15T13:59:05.286Z,991.67
2017-12-15T14:00:15.230Z,991.77
2017-12-15T14:01:25.177Z,991.79
2017-12-15T14:02:35.138Z,991.71
2017-12-15T14:03:45.112Z,991.78
2017-12-15T14:04:55.046Z,991.72
2017-12-15T14:06:04.991Z,991.79
2017-12-15T14:07:14.792Z,991.8
2017-12-15T14:08:24.730Z,991.78
2017-12-15T14:09:34.688Z,991.75
2017-12-15T14:10:44.139Z,991.85
2017-12-15T14:11:53.823Z,991.85
2017-12-15T14:13:03.801Z,991.91
2017-12-15T14:14:13.761Z,991.95
2017-12-15T14:15:23.733Z,991.97
2017-12-15T14:16:33.472Z,992.02
2017-12-15T14:17:43.416Z,991.98
2017-12-15T14:18:53.109Z,991.99
2017-12-15T14:20:03.066Z,992.03
2017-12-15T14:21:12.763Z,992.06
2017-12-15T14:22:22.703Z,992.04
2017-12-15T14:23:32.648Z,992.1
2017-12-15T14:24:42.598Z,992.15
2017-12-15T14:25:52.607Z,992.16
2017-12-15T14:27:02.302Z,992.13
2017-12-15T14:28:12.259Z,992.09
2017-12-15T14:29:21.676Z,992.15
2017-12-15T14:30:31.364Z,992.2
2017-12-15T14:31:41.303Z,992.14
2017-12-15T14:32:50.739Z,992.21
2017-12-15T14:34:00.432Z,992.23